createdAt,value
2022-09-07T00:01:03.101Z,6.57
2022-09-07T00:03:30.416Z,9.05
2022-09-07T00:05:58.032Z,15.35
2022-09-07T00:08:26.878Z,13.90
2022-09-07T00:10:55.509Z,14.45
2022-09-07T00:13:23.133Z,5.15
2022-09-07T00:15:50.391Z,7.60
2022-09-07T00:18:17.658Z,5.47
2022-09-07T00:20:44.845Z,9.00
2022-09-07T00:23:12.245Z,5.45
2022-09-07T00:25:40.057Z,7.72
2022-09-07T00:28:07.904Z,7.43
2022-09-07T00:30:35.252Z,7.38
2022-09-07T00:33:02.328Z,6.80
2022-09-07T00:35:29.410Z,4.30
2022-09-07T00:37:56.484Z,5.28
2022-09-07T00:40:23.580Z,7.38
2022-09-07T00:42:50.695Z,6.60
2022-09-07T00:45:18.782Z,8.60
2022-09-07T00:47:45.892Z,5.70
2022-09-07T00:50:26.041Z,6.15
2022-09-07T00:52:58.994Z,17.15
2022-09-07T00:55:27.555Z,5.72
2022-09-07T00:57:56.548Z,3.78
2022-09-07T01:00:23.723Z,4.70
2022-09-07T01:02:52.209Z,6.28
2022-09-07T01:05:41.339Z,8.55
2022-09-07T01:08:09.393Z,4.72
2022-09-07T01:10:36.825Z,10.82
2022-09-07T01:13:03.965Z,7.07
2022-09-07T01:16:09.895Z,8.05
2022-09-07T01:18:53.926Z,7.30
2022-09-07T01:21:20.997Z,6.00
2022-09-07T01:23:59.399Z,6.85
2022-09-07T01:26:41.617Z,5.05
2022-09-07T01:29:14.587Z,9.70
2022-09-07T01:31:44.493Z,8.40
2022-09-07T01:34:16.409Z,7.55
2022-09-07T01:36:56.462Z,8.07
2022-09-07T01:39:26.687Z,8.48
2022-09-07T01:41:57.028Z,5.10
2022-09-07T01:44:24.073Z,6.22
2022-09-07T01:47:08.235Z,5.93
2022-09-07T01:49:54.168Z,5.38
2022-09-07T01:52:38.402Z,8.95
2022-09-07T01:55:31.928Z,6.22
2022-09-07T01:58:02.862Z,5.65
2022-09-07T02:00:30.409Z,9.50
2022-09-07T02:02:57.475Z,6.25
2022-09-07T02:05:28.430Z,9.15
2022-09-07T02:08:01.378Z,8.23
2022-09-07T02:10:31.968Z,9.23
2022-09-07T02:13:01.860Z,6.10
2022-09-07T02:15:40.966Z,6.32
2022-09-07T02:18:09.518Z,6.03
2022-09-07T02:20:40.137Z,4.43
2022-09-07T02:23:14.399Z,6.13
2022-09-07T02:25:44.671Z,6.20
2022-09-07T02:28:14.725Z,6.35
2022-09-07T02:30:42.433Z,6.30
2022-09-07T02:33:09.744Z,7.97
2022-09-07T02:35:37.178Z,7.18
2022-09-07T02:38:05.992Z,8.02
2022-09-07T02:40:33.447Z,7.10
2022-09-07T02:43:01.951Z,5.75
2022-09-07T02:45:34.198Z,5.30
2022-09-07T02:48:01.236Z,7.25
2022-09-07T02:50:40.614Z,5.25
2022-09-07T02:53:07.659Z,5.60
2022-09-07T02:55:37.729Z,6.25
2022-09-07T02:58:12.046Z,7.20
2022-09-07T03:00:45.709Z,4.57
2022-09-07T03:03:15.917Z,4.65
2022-09-07T03:06:01.818Z,7.68
2022-09-07T03:08:35.111Z,6.28
2022-09-07T03:11:02.373Z,7.85
2022-09-07T03:13:30.297Z,10.43
2022-09-07T03:15:57.866Z,9.48
2022-09-07T03:18:25.867Z,5.85
2022-09-07T03:20:53.360Z,7.18
2022-09-07T03:23:20.553Z,6.93
2022-09-07T03:25:50.743Z,8.90
2022-09-07T03:28:17.970Z,10.80
2022-09-07T03:30:47.119Z,13.15
2022-09-07T03:33:15.835Z,8.05
2022-09-07T03:35:46.562Z,7.28
2022-09-07T03:38:13.655Z,6.97
2022-09-07T03:40:40.868Z,5.53
2022-09-07T03:43:07.964Z,5.55
2022-09-07T03:45:35.127Z,7.07
2022-09-07T03:48:02.253Z,7.25
2022-09-07T03:50:29.387Z,6.10
2022-09-07T03:52:56.464Z,5.68
2022-09-07T03:55:23.533Z,8.27
2022-09-07T03:57:50.620Z,8.60
2022-09-07T04:00:17.813Z,6.85
2022-09-07T04:02:44.959Z,6.90
2022-09-07T04:05:12.087Z,6.50
2022-09-07T04:07:39.492Z,6.63
2022-09-07T04:10:06.835Z,7.68
2022-09-07T04:12:33.957Z,6.82
2022-09-07T04:15:01.048Z,6.05
2022-09-07T04:17:28.437Z,5.88
2022-09-07T04:19:55.720Z,6.10
2022-09-07T04:22:22.834Z,6.85
2022-09-07T04:24:50.138Z,6.15
2022-09-07T04:27:17.332Z,5.63
2022-09-07T04:29:44.477Z,6.10
2022-09-07T04:32:15.719Z,5.28
2022-09-07T04:34:43.132Z,6.30
2022-09-07T04:37:10.180Z,8.40
2022-09-07T04:39:37.324Z,7.35
2022-09-07T04:42:04.590Z,8.68
2022-09-07T04:44:31.674Z,7.38
2022-09-07T04:46:58.764Z,7.47
2022-09-07T04:49:25.845Z,7.80
2022-09-07T04:51:52.932Z,11.07
2022-09-07T04:54:20.579Z,7.75
2022-09-07T04:56:47.675Z,8.90
2022-09-07T04:59:14.765Z,9.65
2022-09-07T05:01:41.936Z,8.65
2022-09-07T05:04:09.069Z,7.90
2022-09-07T05:06:36.149Z,9.07
2022-09-07T05:09:03.289Z,14.50
2022-09-07T05:11:30.632Z,8.25
2022-09-07T05:13:58.606Z,8.45
2022-09-07T05:16:26.411Z,13.98
2022-09-07T05:18:55.110Z,10.85
2022-09-07T05:21:24.442Z,15.68
2022-09-07T05:23:52.358Z,9.65
2022-09-07T05:26:20.354Z,9.88
2022-09-07T05:28:47.690Z,11.02
2022-09-07T05:36:39.474Z,12.05
2022-09-07T05:39:07.132Z,9.68
2022-09-07T05:41:34.418Z,12.00
2022-09-07T05:46:49.311Z,9.82
2022-09-07T05:49:16.431Z,12.48
2022-09-07T05:51:43.519Z,11.23
2022-09-07T05:54:12.077Z,13.75
2022-09-07T05:56:39.143Z,16.45
2022-09-07T05:59:06.270Z,17.17
2022-09-07T06:01:35.419Z,7.25
2022-09-07T06:04:02.614Z,10.27
2022-09-07T06:06:30.100Z,9.95
2022-09-07T06:08:57.674Z,9.77
2022-09-07T06:11:25.490Z,16.58
2022-09-07T06:13:53.433Z,8.95
2022-09-07T06:16:20.659Z,6.68
2022-09-07T06:18:49.370Z,10.68
2022-09-07T06:21:16.459Z,7.57
2022-09-07T06:23:43.810Z,9.52
2022-09-07T06:26:11.312Z,9.20
2022-09-07T06:28:39.619Z,9.25
2022-09-07T06:31:08.261Z,9.10
2022-09-07T06:33:36.122Z,10.57
2022-09-07T06:36:04.861Z,12.30
2022-09-07T06:38:32.989Z,9.02
2022-09-07T06:43:56.185Z,10.13
2022-09-07T06:49:10.901Z,9.73
2022-09-07T06:51:38.126Z,9.95
2022-09-07T06:56:52.608Z,10.95
2022-09-07T06:59:19.750Z,8.10
2022-09-07T07:01:46.865Z,7.78
2022-09-07T07:04:14.553Z,7.38
2022-09-07T07:06:41.653Z,7.28
2022-09-07T07:09:09.613Z,7.20
2022-09-07T07:11:37.520Z,7.90
2022-09-07T07:14:04.886Z,7.43
2022-09-07T07:16:32.158Z,7.85
2022-09-07T07:18:59.292Z,7.72
2022-09-07T07:21:28.923Z,7.47
2022-09-07T07:24:06.183Z,8.13
2022-09-07T07:26:35.181Z,7.03
2022-09-07T07:29:03.499Z,6.72
2022-09-07T07:31:33.162Z,9.02
2022-09-07T07:34:00.314Z,8.95
2022-09-07T07:36:28.093Z,7.95
2022-09-07T07:38:59.340Z,8.65
2022-09-07T07:44:18.320Z,9.40
2022-09-07T07:46:48.193Z,9.57
2022-09-07T07:49:15.437Z,11.20
2022-09-07T07:54:29.641Z,9.15
2022-09-07T07:56:56.670Z,11.13
2022-09-07T07:59:23.950Z,9.05
2022-09-07T08:01:51.157Z,9.27
2022-09-07T08:04:18.436Z,9.88
2022-09-07T08:06:45.500Z,10.60
2022-09-07T08:09:12.527Z,12.73
2022-09-07T08:11:40.433Z,10.05
2022-09-07T08:14:08.514Z,8.27
2022-09-07T08:16:36.262Z,9.30
2022-09-07T08:19:03.773Z,12.00
2022-09-07T08:21:30.797Z,12.73
2022-09-07T08:23:59.959Z,8.68
2022-09-07T08:26:27.286Z,13.55
2022-09-07T08:28:55.029Z,10.10
2022-09-07T08:31:22.375Z,13.38
2022-09-07T08:33:49.469Z,9.13
2022-09-07T08:36:20.693Z,9.05
2022-09-07T08:38:48.229Z,12.40
2022-09-07T08:41:27.467Z,9.77
2022-09-07T08:43:58.682Z,12.45
2022-09-07T08:46:36.613Z,12.57
2022-09-07T08:49:05.629Z,10.75
2022-09-07T08:51:35.551Z,16.38
2022-09-07T08:54:03.012Z,10.10
2022-09-07T08:56:37.991Z,9.27
2022-09-07T08:59:34.498Z,11.52
2022-09-07T09:07:45.413Z,9.77
2022-09-07T09:10:50.862Z,11.68
2022-09-07T09:13:18.473Z,11.27
2022-09-07T09:15:45.529Z,8.57
2022-09-07T09:18:24.674Z,13.43
2022-09-07T09:20:56.567Z,13.35
2022-09-07T09:23:27.910Z,9.20
2022-09-07T09:26:05.217Z,13.25
2022-09-07T09:28:32.581Z,9.75
2022-09-07T09:30:59.783Z,9.88
2022-09-07T09:33:28.177Z,9.90
2022-09-07T09:35:56.886Z,9.50
2022-09-07T09:38:30.011Z,8.77
2022-09-07T09:40:58.097Z,15.02
2022-09-07T09:43:26.441Z,10.88
2022-09-07T09:48:42.945Z,13.18
2022-09-07T09:53:58.930Z,12.07
2022-09-07T09:56:45.284Z,11.77
2022-09-07T10:05:21.929Z,17.00
2022-09-07T10:07:53.368Z,14.43
2022-09-07T10:10:20.467Z,13.45
2022-09-07T10:12:47.524Z,15.73
2022-09-07T10:15:26.585Z,17.65
2022-09-07T10:17:53.809Z,16.00
2022-09-07T10:20:30.867Z,14.02
2022-09-07T10:22:59.130Z,14.63
2022-09-07T10:25:36.705Z,14.38
2022-09-07T10:28:06.967Z,12.02
2022-09-07T10:30:39.328Z,15.20
2022-09-07T10:33:11.074Z,14.02
2022-09-07T10:35:53.497Z,13.35
2022-09-07T10:38:22.654Z,14.13
2022-09-07T10:41:08.145Z,14.65
2022-09-07T10:43:35.131Z,14.00
2022-09-07T10:46:08.090Z,18.23
2022-09-07T10:48:35.157Z,14.43
2022-09-07T10:51:14.056Z,15.63
2022-09-07T10:54:29.349Z,18.20
2022-09-07T10:57:04.352Z,14.40
2022-09-07T11:02:32.422Z,15.75
2022-09-07T11:05:12.739Z,18.85
2022-09-07T11:07:47.817Z,13.85
2022-09-07T11:10:21.170Z,12.50
2022-09-07T11:12:49.617Z,16.45
2022-09-07T11:15:19.841Z,14.93
2022-09-07T11:17:52.730Z,16.27
2022-09-07T11:20:30.874Z,14.05
2022-09-07T11:23:03.802Z,12.00
2022-09-07T11:25:35.938Z,12.23
2022-09-07T11:28:08.814Z,11.48
2022-09-07T11:30:38.015Z,9.82
2022-09-07T11:33:05.144Z,9.60
2022-09-07T11:35:35.609Z,13.55
2022-09-07T11:38:06.870Z,12.55
2022-09-07T11:40:40.154Z,13.27
2022-09-07T11:43:15.516Z,11.95
2022-09-07T11:45:49.193Z,10.52
2022-09-07T11:48:20.415Z,12.13
2022-09-07T11:50:50.135Z,11.48
2022-09-07T11:53:18.973Z,10.43
2022-09-07T11:55:49.526Z,7.40
2022-09-07T11:58:37.123Z,8.93
2022-09-07T12:01:22.917Z,7.70
2022-09-07T12:04:14.605Z,9.05
2022-09-07T12:07:06.597Z,8.52
2022-09-07T12:09:59.484Z,8.32
2022-09-07T12:12:35.665Z,7.57
2022-09-07T12:15:02.665Z,7.07
2022-09-07T12:17:36.007Z,7.32
2022-09-07T12:20:16.359Z,7.47
2022-09-07T12:23:05.157Z,7.32
2022-09-07T12:25:33.432Z,7.03
2022-09-07T12:28:00.913Z,7.13
2022-09-07T12:30:30.046Z,4.30
2022-09-07T12:32:58.612Z,8.40
2022-09-07T12:35:29.688Z,10.15
2022-09-07T12:37:57.467Z,7.43
2022-09-07T12:40:27.795Z,7.47
2022-09-07T12:43:13.070Z,7.13
2022-09-07T12:45:40.190Z,9.80
2022-09-07T12:48:19.146Z,11.02
2022-09-07T12:50:58.899Z,7.13
2022-09-07T12:53:29.401Z,6.38
2022-09-07T12:58:49.944Z,10.25
2022-09-07T13:01:25.945Z,8.43
2022-09-07T13:04:00.475Z,4.80
2022-09-07T13:07:02.269Z,7.82
2022-09-07T13:09:33.993Z,4.85
2022-09-07T13:12:04.586Z,8.20
2022-09-07T13:14:33.926Z,7.22
2022-09-07T13:17:20.300Z,6.80
2022-09-07T13:19:47.350Z,3.50
2022-09-07T13:22:33.017Z,5.00
2022-09-07T13:25:01.516Z,6.35
2022-09-07T13:27:28.523Z,7.50
2022-09-07T13:30:02.861Z,6.60
2022-09-07T13:35:26.191Z,4.72
2022-09-07T13:37:58.397Z,7.82
2022-09-07T13:40:34.110Z,5.72
2022-09-07T13:43:02.254Z,6.18
2022-09-07T13:45:29.325Z,5.32
2022-09-07T13:48:19.151Z,7.88
2022-09-07T13:51:05.305Z,7.10
2022-09-07T13:53:43.313Z,10.20
2022-09-07T13:56:10.323Z,10.65
2022-09-07T13:58:41.093Z,11.90
2022-09-07T14:01:15.083Z,5.82
2022-09-07T14:03:54.255Z,9.68
2022-09-07T14:06:21.288Z,5.60
2022-09-07T14:08:59.159Z,4.65
2022-09-07T14:11:28.204Z,4.45
2022-09-07T14:14:16.243Z,5.68
2022-09-07T14:16:45.512Z,5.82
2022-09-07T14:19:14.006Z,5.07
2022-09-07T14:21:41.175Z,4.88
2022-09-07T14:24:19.332Z,9.07
2022-09-07T14:26:49.513Z,3.72
2022-09-07T14:29:25.853Z,8.80
2022-09-07T14:31:54.276Z,6.88
2022-09-07T14:34:23.342Z,5.57
2022-09-07T14:36:51.116Z,5.95
2022-09-07T14:39:20.001Z,5.07
2022-09-07T14:41:47.170Z,4.05
2022-09-07T14:44:32.993Z,4.88
2022-09-07T14:47:01.561Z,5.18
2022-09-07T14:49:28.852Z,8.93
2022-09-07T14:51:56.860Z,7.53
2022-09-07T14:54:27.693Z,4.88
2022-09-07T14:57:18.236Z,6.32
2022-09-07T14:59:46.519Z,7.03
2022-09-07T15:02:19.777Z,5.50
2022-09-07T15:04:47.569Z,6.22
2022-09-07T15:07:30.931Z,5.68
2022-09-07T15:10:12.850Z,10.35
2022-09-07T15:12:42.078Z,4.85
2022-09-07T15:15:27.903Z,8.45
2022-09-07T15:17:59.042Z,8.27
2022-09-07T15:20:38.114Z,5.97
2022-09-07T15:23:06.454Z,8.38
2022-09-07T15:25:33.558Z,7.53
2022-09-07T15:28:00.641Z,7.45
2022-09-07T15:30:27.821Z,10.13
2022-09-07T15:32:56.891Z,9.93
2022-09-07T15:35:24.492Z,10.07
2022-09-07T15:38:59.322Z,10.23
2022-09-07T15:41:10.436Z,12.82
2022-09-07T15:43:31.972Z,11.25
2022-09-07T15:45:59.353Z,12.20
2022-09-07T15:48:26.646Z,11.70
2022-09-07T15:51:01.500Z,8.77
2022-09-07T15:56:16.527Z,11.07
2022-09-07T15:58:43.680Z,11.38
2022-09-07T16:03:59.196Z,8.43
2022-09-07T16:06:27.133Z,6.70
2022-09-07T16:08:55.378Z,7.10
2022-09-07T16:11:24.346Z,6.60
2022-09-07T16:14:01.721Z,8.45
2022-09-07T16:19:20.587Z,7.50
2022-09-07T16:21:47.946Z,6.63
2022-09-07T16:24:16.177Z,7.30
2022-09-07T16:26:43.343Z,8.43
2022-09-07T16:29:10.352Z,8.70
2022-09-07T16:31:37.905Z,10.45
2022-09-07T16:34:05.136Z,7.90
2022-09-07T16:36:32.159Z,8.27
2022-09-07T16:39:00.552Z,6.82
2022-09-07T16:41:31.928Z,10.15
2022-09-07T16:43:59.481Z,9.15
2022-09-07T16:46:27.989Z,5.60
2022-09-07T16:48:55.360Z,5.88
2022-09-07T16:51:22.994Z,5.43
2022-09-07T16:53:50.925Z,4.32
2022-09-07T16:56:19.301Z,6.65
2022-09-07T16:58:47.503Z,8.80
2022-09-07T17:01:15.767Z,6.20
2022-09-07T17:03:43.268Z,5.20
2022-09-07T17:06:11.281Z,8.55
2022-09-07T17:08:39.545Z,6.10
2022-09-07T17:11:08.046Z,6.13
2022-09-07T17:13:35.951Z,9.15
2022-09-07T17:16:03.811Z,7.22
2022-09-07T17:21:19.739Z,7.80
2022-09-07T17:23:54.381Z,6.50
2022-09-07T17:26:26.067Z,7.05
2022-09-07T17:28:54.078Z,5.70
2022-09-07T17:34:13.374Z,5.82
2022-09-07T17:36:40.790Z,4.65
2022-09-07T17:39:17.116Z,6.45
2022-09-07T17:41:45.065Z,9.18
2022-09-07T17:44:12.311Z,5.68
2022-09-07T17:46:39.397Z,8.40
2022-09-07T17:49:11.074Z,11.77
2022-09-07T17:51:38.342Z,6.65
2022-09-07T17:54:09.971Z,6.05
2022-09-07T17:56:38.171Z,7.38
2022-09-07T18:01:53.826Z,7.93
2022-09-07T18:04:21.138Z,7.57
2022-09-07T18:06:48.277Z,6.35
2022-09-07T18:09:15.684Z,8.43
2022-09-07T18:11:45.460Z,8.50
2022-09-07T18:14:14.396Z,6.75
2022-09-07T18:16:42.117Z,7.97
2022-09-07T18:19:09.203Z,7.38
2022-09-07T18:21:37.148Z,11.10
2022-09-07T18:24:05.572Z,4.47
2022-09-07T18:26:33.368Z,6.93
2022-09-07T18:29:08.497Z,6.05
2022-09-07T18:31:40.685Z,7.05
2022-09-07T18:34:07.700Z,6.18
2022-09-07T18:36:35.750Z,6.88
2022-09-07T18:39:04.875Z,6.15
2022-09-07T18:41:33.216Z,7.25
2022-09-07T18:44:00.469Z,5.78
2022-09-07T18:46:28.092Z,4.68
2022-09-07T18:48:55.335Z,4.70
2022-09-07T18:51:22.470Z,9.52
2022-09-07T18:53:49.496Z,8.02
2022-09-07T18:56:17.881Z,6.65
2022-09-07T18:58:45.588Z,6.15
2022-09-07T19:01:14.561Z,7.57
2022-09-07T19:03:42.429Z,7.30
2022-09-07T19:06:13.349Z,8.10
2022-09-07T19:08:41.747Z,12.57
2022-09-07T19:11:18.608Z,5.25
2022-09-07T19:13:45.965Z,7.18
2022-09-07T19:16:14.268Z,7.93
2022-09-07T19:18:52.140Z,6.78
2022-09-07T19:21:20.360Z,6.63
2022-09-07T19:23:57.339Z,6.28
2022-09-07T19:26:25.300Z,6.85
2022-09-07T19:28:57.177Z,9.07
2022-09-07T19:31:25.066Z,6.47
2022-09-07T19:34:02.157Z,5.40
2022-09-07T19:36:30.179Z,6.75
2022-09-07T19:38:57.390Z,6.07
2022-09-07T19:41:24.777Z,10.18
2022-09-07T19:43:51.812Z,10.80
2022-09-07T19:46:24.135Z,9.50
2022-09-07T19:48:52.063Z,9.30
2022-09-07T19:51:19.850Z,10.10
2022-09-07T19:53:47.581Z,9.18
2022-09-07T19:56:16.240Z,11.38
2022-09-07T19:58:44.210Z,10.73
2022-09-07T20:01:16.005Z,9.00
2022-09-07T20:03:43.403Z,7.53
2022-09-07T20:06:11.449Z,7.78
2022-09-07T20:08:39.160Z,8.13
2022-09-07T20:11:08.251Z,7.75
2022-09-07T20:13:36.562Z,6.55
2022-09-07T20:16:07.758Z,8.57
2022-09-07T20:18:38.306Z,6.80
2022-09-07T20:21:06.330Z,10.23
2022-09-07T20:23:34.848Z,8.00
2022-09-07T20:26:02.944Z,7.60
2022-09-07T20:28:30.438Z,9.73
2022-09-07T20:30:57.460Z,9.27
2022-09-07T20:33:24.862Z,5.65
2022-09-07T20:35:52.118Z,5.90
2022-09-07T20:38:20.966Z,11.80
2022-09-07T20:40:51.694Z,5.75
2022-09-07T20:43:18.993Z,7.32
2022-09-07T20:45:46.140Z,6.97
2022-09-07T20:48:13.429Z,10.55
2022-09-07T20:50:40.490Z,11.18
2022-09-07T20:53:07.814Z,12.88
2022-09-07T20:55:35.912Z,6.35
2022-09-07T20:58:03.466Z,10.85
2022-09-07T21:00:30.874Z,9.10
2022-09-07T21:02:58.042Z,7.57
2022-09-07T21:05:25.236Z,10.65
2022-09-07T21:07:52.316Z,8.35
2022-09-07T21:10:19.446Z,9.93
2022-09-07T21:12:46.493Z,5.70
2022-09-07T21:15:13.537Z,10.27
2022-09-07T21:17:40.621Z,7.88
2022-09-07T21:20:07.757Z,7.78
2022-09-07T21:22:34.803Z,9.02
2022-09-07T21:25:02.245Z,9.32
2022-09-07T21:27:37.703Z,6.65
2022-09-07T21:30:05.921Z,9.20
2022-09-07T21:32:33.041Z,6.78
2022-09-07T21:35:00.086Z,6.93
2022-09-07T21:37:27.141Z,8.15
2022-09-07T21:39:54.283Z,10.35
2022-09-07T21:42:21.300Z,7.85
2022-09-07T21:44:48.310Z,7.30
2022-09-07T21:47:15.699Z,8.18
2022-09-07T21:49:44.395Z,9.43
2022-09-07T21:52:11.422Z,11.20
2022-09-07T21:54:38.455Z,9.02
2022-09-07T21:57:05.884Z,7.32
2022-09-07T21:59:32.916Z,7.88
2022-09-07T22:02:00.423Z,5.00
2022-09-07T22:04:27.559Z,7.15
2022-09-07T22:06:54.676Z,8.55
2022-09-07T22:09:21.919Z,8.13
2022-09-07T22:11:49.452Z,9.88
2022-09-07T22:14:16.735Z,8.50
2022-09-07T22:16:43.802Z,6.78
2022-09-07T22:19:11.499Z,8.32
2022-09-07T22:21:38.557Z,10.77
2022-09-07T22:24:06.344Z,7.13
2022-09-07T22:26:36.217Z,10.73
2022-09-07T22:29:03.247Z,8.73
2022-09-07T22:31:31.538Z,8.48
2022-09-07T22:33:59.323Z,11.25
2022-09-07T22:36:26.297Z,6.18
2022-09-07T22:38:55.203Z,7.30
2022-09-07T22:41:23.400Z,7.85
2022-09-07T22:43:50.918Z,6.60
2022-09-07T22:46:18.912Z,8.63
2022-09-07T22:48:46.317Z,7.55
2022-09-07T22:51:13.346Z,10.52
2022-09-07T22:53:42.435Z,10.35
2022-09-07T22:56:17.044Z,9.02
2022-09-07T22:58:47.572Z,9.40
2022-09-07T23:01:14.734Z,7.85
2022-09-07T23:03:41.998Z,8.00
2022-09-07T23:06:09.228Z,8.00
2022-09-07T23:08:36.387Z,9.10
2022-09-07T23:11:05.013Z,6.53
2022-09-07T23:13:33.285Z,10.95
2022-09-07T23:16:03.853Z,8.63
2022-09-07T23:18:30.966Z,9.05
2022-09-07T23:21:01.619Z,5.95
2022-09-07T23:23:29.447Z,6.53
2022-09-07T23:25:56.527Z,6.82
2022-09-07T23:28:23.602Z,8.75
2022-09-07T23:30:51.432Z,7.68
2022-09-07T23:33:18.831Z,9.00
2022-09-07T23:35:55.572Z,8.45
2022-09-07T23:38:22.751Z,6.75
2022-09-07T23:40:49.797Z,7.25
2022-09-07T23:43:16.826Z,11.07
2022-09-07T23:45:43.832Z,9.82
2022-09-07T23:48:10.847Z,8.00
2022-09-07T23:50:37.894Z,8.88
2022-09-07T23:53:04.954Z,6.50
2022-09-07T23:55:32.083Z,7.38
2022-09-07T23:57:59.126Z,8.73
